CheckWX is a tool to help pilots better visualize weather data.  It is not intended as a substitute for an official pre-flight weather briefing.

13:03:11 UTC

EBBE METAR
Beauvechain Air Base Airport
Beauvechain, Belgium
Current

23 mins ago

EBBE 221240Z VRB02KT 5000 BR FEW015 BKN018 10/08 Q1036 WHT GRN BECMG WHT
Observed
Feb-22 @ 12:40 UTC
Wind
  • Variable at 2 KTS
Visibility
5,005 meters
Flight Rules
MVFR
Conditions
Mist
Cloud Levels
  • Few at 1,500' AGL
  • Broken at 1,800' AGL
Temperature
10°C / 50°F
Dewpoint
C / 46°F
Humidity
88%
Altimeter
30.59" Hg
Pressure
1035.91 hPa
Previous

38 mins ago

EBBE 221225Z VRB01KT 4800 BR FEW015 BKN018 10/08 Q1036 GRN GRN BECMG WHT
Observed
Feb-22 @ 12:25 UTC
Wind
  • Variable at 1 KTS
Visibility
4,796 meters
Flight Rules
IFR
Conditions
Mist
Cloud Levels
  • Few at 1,500' AGL
  • Broken at 1,800' AGL
Temperature
10°C / 50°F
Dewpoint
C / 46°F
Humidity
88%
Altimeter
30.59" Hg
Pressure
1035.91 hPa
Previous

1 hour ago

EBBE 221155Z VRB01KT 4300 BR FEW011 BKN018 10/08 Q1036 GRN GRN BECMG WHT
Observed
Feb-22 @ 11:55 UTC
Wind
  • Variable at 1 KTS
Visibility
4,297 meters
Flight Rules
IFR
Conditions
Mist
Cloud Levels
  • Few at 1,100' AGL
  • Broken at 1,800' AGL
Temperature
10°C / 50°F
Dewpoint
C / 46°F
Humidity
88%
Altimeter
30.59" Hg
Pressure
1035.91 hPa